createdAt,value
2022-10-29T00:00:39.572Z,21.45
2022-10-29T00:05:54.574Z,21.43
2022-10-29T00:11:09.976Z,21.42
2022-10-29T00:16:25.569Z,21.42
2022-10-29T00:21:40.608Z,21.42
2022-10-29T00:26:55.559Z,21.42
2022-10-29T00:32:10.985Z,21.41
2022-10-29T00:37:26.892Z,21.39
2022-10-29T00:42:42.650Z,21.38
2022-10-29T00:47:57.870Z,21.37
2022-10-29T00:53:13.597Z,21.34
2022-10-29T00:58:28.601Z,21.37
2022-10-29T01:03:43.374Z,21.39
2022-10-29T01:08:58.608Z,21.38
2022-10-29T01:14:13.616Z,21.36
2022-10-29T01:19:28.639Z,21.37
2022-10-29T01:24:43.576Z,21.36
2022-10-29T01:29:58.615Z,21.34
2022-10-29T01:35:13.955Z,21.34
2022-10-29T01:40:29.620Z,21.33
2022-10-29T01:45:44.574Z,21.31
2022-10-29T01:50:59.829Z,21.33
2022-10-29T01:56:15.605Z,21.33
2022-10-29T02:01:30.685Z,21.32
2022-10-29T02:06:45.574Z,21.31
2022-10-29T02:12:00.692Z,21.29
2022-10-29T02:17:15.915Z,21.29
2022-10-29T02:22:31.598Z,21.29
2022-10-29T02:27:46.886Z,21.31
2022-10-29T02:33:02.928Z,21.30
2022-10-29T02:38:18.894Z,21.28
2022-10-29T02:43:34.584Z,21.27
2022-10-29T02:48:49.895Z,21.26
2022-10-29T02:54:05.629Z,21.28
2022-10-29T02:59:20.646Z,21.30
2022-10-29T03:04:35.342Z,21.29
2022-10-29T03:09:50.613Z,21.27
2022-10-29T03:15:05.596Z,21.24
2022-10-29T03:20:20.620Z,21.24
2022-10-29T03:25:35.632Z,21.23
2022-10-29T03:30:50.684Z,21.22
2022-10-29T03:36:05.626Z,21.21
2022-10-29T03:41:20.987Z,21.19
2022-10-29T03:46:36.910Z,21.22
2022-10-29T03:51:52.662Z,21.26
2022-10-29T03:57:07.896Z,21.26
2022-10-29T04:02:24.041Z,21.26
2022-10-29T04:07:39.633Z,21.25
2022-10-29T04:12:55.175Z,21.26
2022-10-29T04:18:10.613Z,21.27
2022-10-29T04:29:00.584Z,21.30
2022-10-29T04:34:15.781Z,21.28
2022-10-29T04:39:30.601Z,21.30
2022-10-29T04:44:45.907Z,21.30
2022-10-29T04:50:01.624Z,21.32
2022-10-29T04:55:16.613Z,21.32
2022-10-29T05:00:31.590Z,21.33
2022-10-29T05:05:46.591Z,21.35
2022-10-29T05:11:01.618Z,21.37
2022-10-29T05:16:16.662Z,21.37
2022-10-29T05:21:31.605Z,21.36
2022-10-29T05:26:46.651Z,21.36
2022-10-29T05:32:01.618Z,21.38
2022-10-29T05:37:16.751Z,21.41
2022-10-29T05:42:31.601Z,21.39
2022-10-29T05:47:46.911Z,21.44
2022-10-29T05:53:02.606Z,21.42
2022-10-29T05:58:17.660Z,21.38
2022-10-29T06:03:32.610Z,21.36
2022-10-29T06:08:47.678Z,21.34
2022-10-29T06:14:02.654Z,21.31
2022-10-29T06:19:17.904Z,21.28
2022-10-29T06:24:33.618Z,21.26
2022-10-29T06:29:48.597Z,21.24
2022-10-29T06:35:03.902Z,21.21
2022-10-29T06:40:19.609Z,21.19
2022-10-29T06:45:34.383Z,21.17
2022-10-29T06:50:49.998Z,21.15
2022-10-29T06:56:05.659Z,21.14
2022-10-29T07:01:20.712Z,21.11
2022-10-29T07:06:35.666Z,21.10
2022-10-29T07:11:50.972Z,21.07
2022-10-29T07:17:06.610Z,21.06
2022-10-29T07:22:21.627Z,21.04
2022-10-29T07:27:36.663Z,21.03
2022-10-29T07:32:51.756Z,21.01
2022-10-29T07:38:09.242Z,21.00
2022-10-29T07:43:25.966Z,21.00
2022-10-29T07:48:41.634Z,20.99
2022-10-29T07:53:56.666Z,20.98
2022-10-29T07:59:11.715Z,20.98
2022-10-29T08:04:26.592Z,20.97
2022-10-29T08:09:41.635Z,20.97
2022-10-29T08:14:56.656Z,20.95
2022-10-29T08:20:11.615Z,20.96
2022-10-29T08:25:26.618Z,20.94
2022-10-29T08:30:41.617Z,20.95
2022-10-29T08:35:56.611Z,20.97
2022-10-29T08:41:11.956Z,20.97
2022-10-29T08:46:27.388Z,21.00
2022-10-29T08:51:42.673Z,21.02
2022-10-29T08:56:57.610Z,21.05
2022-10-29T09:02:12.654Z,21.06
2022-10-29T09:07:27.675Z,21.10
2022-10-29T09:12:42.609Z,21.11
2022-10-29T09:17:58.294Z,21.11
2022-10-29T09:23:13.608Z,21.11
2022-10-29T09:28:28.946Z,21.11
2022-10-29T09:33:44.628Z,21.11
2022-10-29T09:38:59.629Z,21.11
2022-10-29T09:44:14.654Z,21.11
2022-10-29T09:49:29.630Z,21.10
2022-10-29T09:54:44.609Z,21.10
2022-10-29T09:59:59.912Z,21.10
2022-10-29T10:05:20.631Z,21.10
2022-10-29T10:10:35.691Z,21.09
2022-10-29T10:15:50.650Z,21.08
2022-10-29T10:21:05.692Z,21.08
2022-10-29T10:26:21.097Z,21.06
2022-10-29T10:31:37.106Z,21.06
2022-10-29T10:36:53.141Z,21.06
2022-10-29T10:42:08.675Z,21.07
2022-10-29T10:47:23.916Z,21.09
2022-10-29T10:52:39.675Z,21.10
2022-10-29T10:57:54.625Z,21.13
2022-10-29T11:03:09.673Z,21.13
2022-10-29T11:08:24.935Z,21.13
2022-10-29T11:13:40.705Z,21.14
2022-10-29T11:18:55.615Z,21.13
2022-10-29T11:24:10.728Z,21.17
2022-10-29T11:29:25.942Z,21.19
2022-10-29T11:34:41.921Z,21.20
2022-10-29T11:39:57.931Z,21.22
2022-10-29T11:45:13.629Z,21.24
2022-10-29T11:50:28.636Z,21.26
2022-10-29T11:55:43.673Z,21.28
2022-10-29T12:00:58.646Z,21.30
2022-10-29T12:06:13.992Z,21.32
2022-10-29T12:11:29.663Z,21.33
2022-10-29T12:16:44.725Z,21.33
2022-10-29T12:22:00.028Z,21.34
2022-10-29T12:27:15.633Z,21.35
2022-10-29T12:32:30.670Z,21.37
2022-10-29T12:37:45.647Z,21.37
2022-10-29T12:43:00.702Z,21.38
2022-10-29T12:48:15.844Z,21.39
2022-10-29T12:53:31.956Z,21.43
2022-10-29T12:58:47.678Z,21.45
2022-10-29T13:04:02.624Z,21.46
2022-10-29T13:09:17.675Z,21.47
2022-10-29T13:14:32.417Z,21.47
2022-10-29T13:19:47.676Z,21.48
2022-10-29T13:25:02.960Z,21.49
2022-10-29T13:30:18.641Z,21.49
2022-10-29T13:35:33.999Z,21.50
2022-10-29T13:40:49.471Z,21.50
2022-10-29T13:46:04.633Z,21.50
2022-10-29T13:51:19.707Z,21.51
2022-10-29T13:56:34.960Z,21.52
2022-10-29T14:01:50.717Z,21.52
2022-10-29T14:07:05.656Z,21.54
2022-10-29T14:12:20.672Z,21.55
2022-10-29T14:17:35.730Z,21.55
2022-10-29T14:22:50.678Z,21.54
2022-10-29T14:28:05.528Z,21.52
2022-10-29T14:33:20.976Z,21.53
2022-10-29T14:38:36.647Z,21.53
2022-10-29T14:43:51.420Z,21.51
2022-10-29T14:49:06.713Z,21.50
2022-10-29T14:54:22.006Z,21.48
2022-10-29T14:59:36.689Z,21.49
2022-10-29T15:04:51.685Z,21.48
2022-10-29T15:10:06.672Z,21.48
2022-10-29T15:15:21.962Z,21.46
2022-10-29T15:20:37.443Z,21.46
2022-10-29T15:25:53.140Z,21.45
2022-10-29T15:31:08.722Z,21.45
2022-10-29T15:36:24.052Z,21.45
2022-10-29T15:41:39.999Z,21.44
2022-10-29T15:46:55.426Z,21.44
2022-10-29T15:52:10.666Z,21.43
2022-10-29T15:57:25.736Z,21.42
2022-10-29T16:02:40.719Z,21.40
2022-10-29T16:07:55.687Z,21.42
2022-10-29T16:13:10.987Z,21.43
2022-10-29T16:18:26.963Z,21.43
2022-10-29T16:23:42.670Z,21.43
2022-10-29T16:28:57.972Z,21.43
2022-10-29T16:34:13.686Z,21.42
2022-10-29T16:39:28.989Z,21.41
2022-10-29T16:44:45.035Z,21.42
2022-10-29T16:50:00.702Z,21.43
2022-10-29T16:55:16.681Z,21.44
2022-10-29T17:00:31.669Z,21.45
2022-10-29T17:05:46.678Z,21.46
2022-10-29T17:11:01.948Z,21.45
2022-10-29T17:16:17.658Z,21.45
2022-10-29T17:21:32.654Z,21.46
2022-10-29T17:26:47.693Z,21.46
2022-10-29T17:37:38.005Z,21.45
2022-10-29T17:43:31.427Z,21.45
2022-10-29T17:48:46.657Z,21.45
2022-10-29T17:54:01.715Z,21.44
2022-10-29T17:59:16.686Z,21.44
2022-10-29T18:04:31.748Z,21.46
2022-10-29T18:09:46.653Z,21.53
2022-10-29T18:15:01.714Z,21.56
2022-10-29T18:20:16.712Z,21.58
2022-10-29T18:25:31.907Z,21.62
2022-10-29T18:30:46.695Z,21.66
2022-10-29T18:36:01.515Z,21.66
2022-10-29T18:41:16.589Z,21.68
2022-10-29T18:46:31.740Z,21.70
2022-10-29T18:51:46.689Z,21.73
2022-10-29T18:57:02.036Z,21.72
2022-10-29T19:02:17.818Z,21.73
2022-10-29T19:07:32.434Z,21.73
2022-10-29T19:12:47.501Z,21.72
2022-10-29T19:18:02.661Z,21.74
2022-10-29T19:23:18.004Z,21.77
2022-10-29T19:28:33.688Z,21.78
2022-10-29T19:33:48.702Z,21.78
2022-10-29T19:39:04.000Z,21.79
2022-10-29T19:44:19.994Z,21.79
2022-10-29T19:49:35.762Z,21.81
2022-10-29T19:54:50.440Z,21.81
2022-10-29T20:00:05.702Z,21.82
2022-10-29T20:05:20.694Z,21.83
2022-10-29T20:10:35.725Z,21.85
2022-10-29T20:15:51.031Z,21.85
2022-10-29T20:26:21.668Z,21.88
2022-10-29T20:31:41.139Z,21.89
2022-10-29T20:36:56.776Z,21.88
2022-10-29T20:42:11.709Z,21.90
2022-10-29T20:47:26.459Z,21.91
2022-10-29T20:52:47.209Z,21.92
2022-10-29T20:58:03.653Z,21.94
2022-10-29T21:03:18.678Z,21.94
2022-10-29T21:08:33.680Z,21.94
2022-10-29T21:13:48.750Z,21.95
2022-10-29T21:19:03.655Z,21.94
2022-10-29T21:24:18.705Z,21.93
2022-10-29T21:29:33.703Z,21.92
2022-10-29T21:34:48.435Z,21.91
2022-10-29T21:40:06.293Z,21.90
2022-10-29T21:45:21.671Z,21.89
2022-10-29T21:50:36.970Z,21.88
2022-10-29T21:55:52.680Z,21.88
2022-10-29T22:01:07.759Z,21.87
2022-10-29T22:06:22.707Z,21.87
2022-10-29T22:11:37.716Z,21.87
2022-10-29T22:16:52.670Z,21.86
2022-10-29T22:22:07.687Z,21.86
2022-10-29T22:27:23.092Z,21.86
2022-10-29T22:32:38.714Z,21.87
2022-10-29T22:37:53.791Z,21.86
2022-10-29T22:43:08.664Z,21.85
2022-10-29T22:48:23.652Z,21.85
2022-10-29T22:53:38.986Z,21.84
2022-10-29T22:58:55.015Z,21.83
2022-10-29T23:04:10.736Z,21.84
2022-10-29T23:09:25.697Z,21.86
2022-10-29T23:14:40.758Z,21.87
2022-10-29T23:19:55.671Z,21.87
2022-10-29T23:25:10.688Z,21.88
2022-10-29T23:30:25.703Z,21.88
2022-10-29T23:35:40.670Z,21.90
2022-10-29T23:40:56.009Z,21.91
2022-10-29T23:46:11.455Z,21.92
2022-10-29T23:51:26.698Z,21.92
2022-10-29T23:56:41.714Z,21.91
